createdAt,value
2019-02-05T00:03:35.243Z,18.87
2019-02-05T00:06:03.859Z,18.33
2019-02-05T00:08:32.400Z,16.33
2019-02-05T00:11:01.006Z,21.77
2019-02-05T00:13:29.559Z,18.60
2019-02-05T00:15:58.069Z,16.30
2019-02-05T00:18:27.003Z,19.63
2019-02-05T00:20:55.502Z,20.60
2019-02-05T00:23:24.397Z,22.03
2019-02-05T00:25:53.223Z,19.27
2019-02-05T00:28:21.695Z,20.70
2019-02-05T00:30:50.253Z,14.90
2019-02-05T00:33:18.703Z,16.60
2019-02-05T00:35:47.257Z,16.97
2019-02-05T00:38:16.191Z,18.63
2019-02-05T00:40:46.466Z,20.03
2019-02-05T00:43:14.971Z,22.30
2019-02-05T00:45:43.430Z,18.37
2019-02-05T00:48:11.949Z,21.30
2019-02-05T00:50:40.498Z,18.30
2019-02-05T00:53:09.438Z,15.97
2019-02-05T00:55:38.027Z,18.70
2019-02-05T00:58:06.595Z,19.67
2019-02-05T01:01:15.562Z,17.90
2019-02-05T01:03:45.359Z,18.10
2019-02-05T01:06:13.887Z,16.70
2019-02-05T01:08:42.418Z,16.17
2019-02-05T01:11:10.991Z,25.90
2019-02-05T01:13:39.516Z,16.90
2019-02-05T01:16:08.160Z,19.77
2019-02-05T01:18:38.488Z,21.97
2019-02-05T01:21:07.064Z,18.23
2019-02-05T01:23:35.648Z,18.20
2019-02-05T01:26:04.340Z,18.83
2019-02-05T01:28:32.969Z,22.00
2019-02-05T01:31:01.838Z,20.20
2019-02-05T01:33:32.031Z,24.90
2019-02-05T01:36:00.551Z,16.60
2019-02-05T01:38:29.062Z,16.90
2019-02-05T01:40:57.686Z,15.70
2019-02-05T01:43:26.248Z,14.63
2019-02-05T01:45:54.706Z,15.70
2019-02-05T01:48:23.208Z,19.90
2019-02-05T01:50:51.745Z,25.80
2019-02-05T01:53:20.288Z,17.27
2019-02-05T01:55:48.825Z,21.10
2019-02-05T01:58:17.495Z,21.00
2019-02-05T02:00:46.035Z,17.80
2019-02-05T02:03:14.627Z,16.40
2019-02-05T02:05:43.763Z,27.43
2019-02-05T02:08:52.282Z,18.30
2019-02-05T02:11:20.869Z,19.53
2019-02-05T02:13:49.504Z,18.33
2019-02-05T02:16:18.101Z,16.50
2019-02-05T02:18:46.690Z,24.03
2019-02-05T02:21:15.266Z,17.13
2019-02-05T02:23:43.904Z,17.40
2019-02-05T02:26:12.493Z,19.93
2019-02-05T02:28:42.779Z,18.27
2019-02-05T02:31:11.765Z,16.27
2019-02-05T02:33:40.311Z,17.53
2019-02-05T02:36:08.876Z,20.77
2019-02-05T02:38:37.361Z,15.10
2019-02-05T02:41:05.828Z,22.00
2019-02-05T02:43:36.117Z,15.40
2019-02-05T02:46:44.589Z,16.13
2019-02-05T02:49:13.147Z,20.77
2019-02-05T02:51:41.762Z,16.20
2019-02-05T02:54:10.267Z,16.73
2019-02-05T02:56:38.833Z,17.67
2019-02-05T02:59:07.482Z,21.40
2019-02-05T03:01:36.084Z,15.77
2019-02-05T03:04:04.729Z,17.90
2019-02-05T03:06:33.259Z,14.40
2019-02-05T03:09:01.736Z,15.43
2019-02-05T03:16:54.846Z,13.77
2019-02-05T03:19:25.133Z,19.03
2019-02-05T03:21:53.571Z,14.97
2019-02-05T03:24:22.004Z,15.23
2019-02-05T03:26:50.577Z,15.83
2019-02-05T03:29:19.088Z,14.43
2019-02-05T03:31:47.626Z,19.43
2019-02-05T03:34:16.190Z,16.90
2019-02-05T03:36:45.259Z,14.40
2019-02-05T03:39:13.786Z,17.50
2019-02-05T03:41:42.378Z,21.70
2019-02-05T03:44:10.832Z,16.50
2019-02-05T03:46:39.346Z,17.20
2019-02-05T03:49:07.938Z,15.07
2019-02-05T03:52:16.742Z,16.30
2019-02-05T03:55:23.957Z,15.70
2019-02-05T03:58:32.501Z,16.13
2019-02-05T04:01:40.959Z,16.53
2019-02-05T04:04:49.464Z,16.37
2019-02-05T04:07:57.953Z,14.97
2019-02-05T04:11:06.422Z,13.43
2019-02-05T04:14:13.624Z,18.30
2019-02-05T04:17:22.394Z,19.27
2019-02-05T04:20:29.576Z,16.83
2019-02-05T04:23:38.408Z,16.10
2019-02-05T04:26:45.883Z,16.57
2019-02-05T04:29:54.350Z,15.23
2019-02-05T04:33:01.906Z,17.93
2019-02-05T04:36:09.076Z,16.90
2019-02-05T04:39:17.650Z,18.60
2019-02-05T04:42:24.921Z,14.80
2019-02-05T04:45:34.282Z,19.43
2019-02-05T04:48:43.569Z,14.93
2019-02-05T04:51:32.060Z,17.93
2019-02-05T04:54:41.014Z,15.37
2019-02-05T04:57:56.943Z,16.77
2019-02-05T05:00:57.219Z,19.73
2019-02-05T05:04:05.773Z,18.53
2019-02-05T05:07:12.959Z,15.60
2019-02-05T05:10:21.440Z,19.57
2019-02-05T05:12:49.960Z,18.60
2019-02-05T05:15:58.443Z,20.53
2019-02-05T05:18:26.990Z,32.83
2019-02-05T05:20:55.586Z,20.30
2019-02-05T05:23:24.545Z,18.03
2019-02-05T05:25:53.329Z,16.50
2019-02-05T05:28:21.866Z,17.40
2019-02-05T05:30:52.350Z,22.00
2019-02-05T05:33:20.847Z,21.63
2019-02-05T05:35:49.371Z,15.10
2019-02-05T05:38:17.919Z,16.63
2019-02-05T05:40:46.395Z,17.20
2019-02-05T05:43:14.930Z,17.90
2019-02-05T05:45:43.553Z,15.70
2019-02-05T05:48:13.890Z,17.50
2019-02-05T05:51:46.195Z,16.33
2019-02-05T05:57:08.557Z,16.70
2019-02-05T06:02:57.067Z,16.60
2019-02-05T06:05:25.850Z,17.10
2019-02-05T06:08:43.911Z,17.17
2019-02-05T06:11:12.466Z,16.00
2019-02-05T06:14:21.269Z,18.80
2019-02-05T06:19:59.180Z,21.50
2019-02-05T06:22:27.742Z,15.77
2019-02-05T06:24:56.380Z,20.03
2019-02-05T06:27:24.978Z,19.03
2019-02-05T06:29:53.684Z,17.93
2019-02-05T06:32:22.276Z,15.00
2019-02-05T06:35:30.829Z,14.70
2019-02-05T06:37:59.363Z,19.23
2019-02-05T06:40:28.015Z,17.47
2019-02-05T06:42:56.498Z,29.13
2019-02-05T06:45:25.029Z,18.83
2019-02-05T06:50:48.642Z,17.63
2019-02-05T06:53:17.219Z,17.13
2019-02-05T06:55:45.788Z,17.10
2019-02-05T06:58:14.299Z,20.13
2019-02-05T07:00:42.948Z,14.27
2019-02-05T07:03:11.653Z,16.50
2019-02-05T07:05:40.200Z,21.03
2019-02-05T07:08:08.910Z,18.67
2019-02-05T07:10:37.417Z,19.33
2019-02-05T07:13:06.329Z,15.73
2019-02-05T07:15:34.804Z,20.90
2019-02-05T07:18:03.512Z,16.20
2019-02-05T07:20:33.899Z,18.53
2019-02-05T07:23:02.459Z,18.47
2019-02-05T07:25:31.380Z,17.20
2019-02-05T07:28:00.311Z,16.40
2019-02-05T07:30:28.943Z,20.37
2019-02-05T07:32:57.901Z,37.30
2019-02-05T07:35:26.519Z,19.33
2019-02-05T07:37:56.896Z,17.87
2019-02-05T07:40:25.576Z,20.97
2019-02-05T07:42:54.071Z,21.73
2019-02-05T07:46:02.642Z,18.60
2019-02-05T07:48:33.007Z,20.17
2019-02-05T07:51:01.536Z,16.60
2019-02-05T07:53:33.084Z,19.43
2019-02-05T07:56:00.460Z,18.40
2019-02-05T08:01:37.370Z,20.17
2019-02-05T08:04:06.008Z,18.40
2019-02-05T08:06:34.630Z,22.13
2019-02-05T08:11:41.244Z,23.57
2019-02-05T08:14:09.456Z,27.77
2019-02-05T08:16:37.917Z,24.60
2019-02-05T08:19:06.891Z,25.90
2019-02-05T08:21:35.541Z,21.07
2019-02-05T08:26:58.785Z,23.70
2019-02-05T08:29:27.974Z,21.07
2019-02-05T08:31:56.475Z,19.20
2019-02-05T08:34:25.086Z,18.23
2019-02-05T08:36:53.657Z,20.70
2019-02-05T08:39:22.347Z,20.37
2019-02-05T08:41:50.859Z,23.70
2019-02-05T08:44:19.400Z,23.33
2019-02-05T08:46:47.992Z,20.40
2019-02-05T08:49:16.578Z,24.10
2019-02-05T08:51:45.203Z,18.37
2019-02-05T08:54:13.807Z,24.43
2019-02-05T08:56:42.449Z,19.17
2019-02-05T08:59:11.100Z,20.70
2019-02-05T09:01:39.819Z,20.67
2019-02-05T09:04:08.363Z,21.93
2019-02-05T09:06:37.045Z,21.83
2019-02-05T09:09:45.494Z,22.13
2019-02-05T09:12:14.257Z,22.87
2019-02-05T09:14:42.742Z,20.33
2019-02-05T09:17:51.247Z,29.93
2019-02-05T09:20:39.163Z,20.33
2019-02-05T09:23:07.839Z,20.77
2019-02-05T09:25:36.378Z,20.07
2019-02-05T09:28:05.219Z,24.30
2019-02-05T09:33:44.610Z,21.30
2019-02-05T09:36:13.197Z,24.63
2019-02-05T09:38:41.951Z,25.73
2019-02-05T09:41:10.635Z,24.13
2019-02-05T09:43:39.674Z,28.30
2019-02-05T09:46:08.669Z,22.63
2019-02-05T09:48:37.233Z,21.80
2019-02-05T09:51:05.848Z,22.87
2019-02-05T09:53:34.389Z,34.00
2019-02-05T09:56:04.800Z,21.77
2019-02-05T09:58:33.360Z,24.93
2019-02-05T10:03:58.653Z,22.37
2019-02-05T10:06:29.094Z,22.27
2019-02-05T10:08:57.603Z,28.27
2019-02-05T10:11:26.120Z,29.40
2019-02-05T10:13:54.675Z,26.23
2019-02-05T10:16:23.335Z,22.33
2019-02-05T10:18:52.218Z,26.77
2019-02-05T10:21:20.873Z,21.73
2019-02-05T10:23:51.189Z,26.60
2019-02-05T10:26:19.819Z,24.93
2019-02-05T10:28:48.317Z,31.00
2019-02-05T10:31:16.897Z,33.13
2019-02-05T10:33:54.915Z,24.47
2019-02-05T10:36:16.089Z,30.57
2019-02-05T10:38:44.691Z,32.50
2019-02-05T10:41:13.544Z,31.90
2019-02-05T10:43:42.140Z,29.10
2019-02-05T10:46:10.781Z,30.23
2019-02-05T10:48:39.404Z,25.90
2019-02-05T10:51:07.972Z,24.17
2019-02-05T10:53:36.616Z,23.60
2019-02-05T10:56:05.465Z,29.40
2019-02-05T10:58:34.195Z,25.07
2019-02-05T11:01:02.830Z,25.63
2019-02-05T11:03:31.440Z,28.80
2019-02-05T11:06:00.108Z,24.10
2019-02-05T11:08:28.743Z,34.70
2019-02-05T11:10:57.275Z,28.53
2019-02-05T11:13:25.833Z,32.57
2019-02-05T11:22:32.215Z,26.80
2019-02-05T11:25:00.763Z,22.00
2019-02-05T11:27:31.058Z,24.50
2019-02-05T11:29:59.613Z,30.83
2019-02-05T11:32:28.146Z,25.10
2019-02-05T11:34:56.708Z,29.47
2019-02-05T11:37:25.355Z,26.20
2019-02-05T11:39:53.954Z,38.20
2019-02-05T11:42:22.522Z,35.13
2019-02-05T11:44:51.058Z,29.30
2019-02-05T11:47:20.002Z,26.50
2019-02-05T11:49:48.557Z,27.20
2019-02-05T11:52:17.124Z,25.33
2019-02-05T11:54:45.691Z,31.30
2019-02-05T11:57:14.334Z,37.20
2019-02-05T11:59:43.329Z,24.80
2019-02-05T12:02:12.524Z,23.90
2019-02-05T12:04:41.117Z,23.03
2019-02-05T12:07:09.819Z,26.43
2019-02-05T12:09:38.506Z,30.23
2019-02-05T12:12:07.052Z,31.60
2019-02-05T12:14:35.644Z,25.13
2019-02-05T12:19:59.246Z,27.03
2019-02-05T12:22:28.079Z,24.13
2019-02-05T12:27:51.445Z,29.60
2019-02-05T12:31:00.226Z,25.57
2019-02-05T12:33:30.629Z,25.70
2019-02-05T12:36:39.462Z,28.43
2019-02-05T12:39:48.255Z,31.00
2019-02-05T12:42:16.921Z,25.77
2019-02-05T12:44:45.543Z,34.20
2019-02-05T12:47:14.406Z,36.87
2019-02-05T12:49:43.041Z,25.63
2019-02-05T12:52:24.503Z,26.90
2019-02-05T12:54:42.537Z,25.80
2019-02-05T12:57:11.201Z,25.40
2019-02-05T12:59:39.826Z,24.63
2019-02-05T13:02:48.328Z,44.23
2019-02-05T13:08:47.491Z,26.23
2019-02-05T13:11:16.054Z,29.13
2019-02-05T13:13:46.743Z,23.80
2019-02-05T13:16:15.363Z,32.53
2019-02-05T13:18:43.865Z,26.37
2019-02-05T13:21:12.503Z,25.80
2019-02-05T13:23:41.540Z,24.53
2019-02-05T13:26:50.123Z,23.17
2019-02-05T13:29:18.805Z,26.33
2019-02-05T13:31:47.424Z,29.67
2019-02-05T13:34:16.162Z,30.43
2019-02-05T13:37:04.587Z,32.40
2019-02-05T13:39:33.250Z,24.93
2019-02-05T13:42:03.356Z,27.37
2019-02-05T13:45:11.684Z,25.87
2019-02-05T13:47:40.988Z,28.37
2019-02-05T13:50:49.499Z,29.80
2019-02-05T13:53:18.074Z,26.83
2019-02-05T13:56:26.646Z,28.00
2019-02-05T13:58:55.264Z,28.07
2019-02-05T14:01:23.863Z,32.57
2019-02-05T14:03:52.744Z,29.37
2019-02-05T14:06:21.401Z,27.73
2019-02-05T14:08:51.881Z,30.77
2019-02-05T14:11:20.449Z,27.70
2019-02-05T14:13:49.302Z,40.63
2019-02-05T14:16:18.039Z,27.03
2019-02-05T14:19:09.671Z,26.63
2019-02-05T14:21:38.492Z,27.90
2019-02-05T14:24:07.129Z,25.03
2019-02-05T14:26:35.706Z,33.00
2019-02-05T14:29:04.397Z,32.53
2019-02-05T14:31:33.283Z,33.23
2019-02-05T14:34:01.934Z,27.57
2019-02-05T14:36:32.132Z,28.27
2019-02-05T14:39:00.782Z,29.00
2019-02-05T14:41:29.320Z,30.73
2019-02-05T14:43:57.873Z,31.70
2019-02-05T14:46:26.539Z,31.70
2019-02-05T14:48:55.446Z,35.63
2019-02-05T14:51:25.697Z,26.93
2019-02-05T14:53:54.319Z,24.80
2019-02-05T14:56:23.298Z,30.47
2019-02-05T14:58:52.152Z,26.70
2019-02-05T15:01:20.954Z,29.83
2019-02-05T15:03:49.649Z,30.43
2019-02-05T15:06:18.387Z,31.03
2019-02-05T15:08:47.070Z,25.77
2019-02-05T15:11:15.723Z,28.20
2019-02-05T15:13:44.307Z,34.80
2019-02-05T15:16:12.844Z,26.90
2019-02-05T15:18:41.419Z,32.77
2019-02-05T15:23:45.064Z,27.90
2019-02-05T15:26:13.767Z,30.67
2019-02-05T15:28:42.428Z,34.70
2019-02-05T15:31:11.202Z,34.13
2019-02-05T15:36:31.343Z,26.23
2019-02-05T15:38:59.498Z,28.73
2019-02-05T15:44:23.259Z,27.30
2019-02-05T15:46:51.877Z,28.27
2019-02-05T15:49:20.524Z,30.53
2019-02-05T15:51:49.656Z,39.67
2019-02-05T15:54:18.352Z,34.40
2019-02-05T15:56:48.691Z,28.13
2019-02-05T15:59:17.427Z,30.20
2019-02-05T16:01:46.159Z,33.80
2019-02-05T16:04:15.062Z,25.97
2019-02-05T16:06:44.133Z,35.00
2019-02-05T16:09:52.837Z,28.17
2019-02-05T16:12:21.481Z,30.80
2019-02-05T16:14:50.443Z,50.30
2019-02-05T16:17:19.060Z,28.33
2019-02-05T16:19:48.169Z,32.67
2019-02-05T16:22:16.934Z,46.90
2019-02-05T16:24:45.732Z,26.67
2019-02-05T16:27:14.695Z,27.73
2019-02-05T16:29:43.218Z,26.90
2019-02-05T16:32:17.726Z,35.90
2019-02-05T16:34:42.018Z,31.60
2019-02-05T16:37:12.372Z,35.23
2019-02-05T16:39:41.292Z,30.73
2019-02-05T16:42:09.914Z,30.23
2019-02-05T16:44:38.497Z,32.17
2019-02-05T16:47:07.273Z,30.20
2019-02-05T16:49:35.895Z,30.00
2019-02-05T16:52:06.246Z,33.40
2019-02-05T16:54:35.259Z,31.43
2019-02-05T16:57:03.928Z,37.63
2019-02-05T16:59:32.598Z,32.90
2019-02-05T17:02:01.384Z,31.27
2019-02-05T17:04:30.629Z,29.83
2019-02-05T17:07:01.026Z,30.63
2019-02-05T17:09:29.873Z,31.23
2019-02-05T17:11:58.648Z,29.90
2019-02-05T17:14:27.314Z,32.83
2019-02-05T17:16:55.792Z,35.50
2019-02-05T17:19:24.528Z,32.07
2019-02-05T17:21:53.200Z,29.13
2019-02-05T17:24:21.843Z,32.63
2019-02-05T17:26:50.446Z,28.10
2019-02-05T17:29:19.021Z,34.43
2019-02-05T17:31:47.679Z,32.47
2019-02-05T17:34:16.414Z,31.97
2019-02-05T17:36:45.402Z,28.27
2019-02-05T17:39:14.389Z,38.73
2019-02-05T17:41:43.030Z,40.83
2019-02-05T17:44:11.624Z,33.27
2019-02-05T17:46:40.148Z,33.60
2019-02-05T17:49:08.718Z,30.53
2019-02-05T17:51:37.620Z,34.37
2019-02-05T17:54:07.996Z,32.30
2019-02-05T17:56:36.638Z,31.83
2019-02-05T17:59:05.216Z,33.47
2019-02-05T18:01:33.831Z,29.43
2019-02-05T18:04:02.658Z,29.43
2019-02-05T18:06:31.273Z,28.90
2019-02-05T18:08:59.880Z,28.50
2019-02-05T18:11:28.368Z,30.63
2019-02-05T18:13:57.074Z,30.80
2019-02-05T18:16:25.724Z,33.07
2019-02-05T18:18:54.412Z,32.50
2019-02-05T18:21:22.975Z,31.93
2019-02-05T18:23:51.581Z,28.23
2019-02-05T18:26:21.991Z,29.33
2019-02-05T18:28:50.673Z,28.10
2019-02-05T18:31:19.342Z,28.37
2019-02-05T18:33:47.922Z,24.77
2019-02-05T18:36:17.036Z,29.17
2019-02-05T18:41:53.828Z,27.07
2019-02-05T18:44:22.397Z,28.90
2019-02-05T18:46:50.987Z,27.67
2019-02-05T18:49:19.734Z,23.90
2019-02-05T18:51:48.319Z,26.10
2019-02-05T18:54:17.008Z,26.77
2019-02-05T18:56:46.119Z,28.50
2019-02-05T18:59:14.968Z,28.47
2019-02-05T19:04:41.141Z,27.57
2019-02-05T19:07:09.790Z,28.80
2019-02-05T19:09:38.518Z,34.03
2019-02-05T19:12:07.401Z,28.53
2019-02-05T19:14:37.707Z,28.93
2019-02-05T19:17:06.397Z,27.00
2019-02-05T19:19:35.287Z,36.17
2019-02-05T19:22:04.096Z,30.57
2019-02-05T19:27:21.921Z,33.20
2019-02-05T19:29:50.612Z,34.40
2019-02-05T19:37:29.815Z,31.83
2019-02-05T19:39:58.445Z,30.60
2019-02-05T19:42:27.169Z,32.53
2019-02-05T19:47:31.235Z,33.43
2019-02-05T19:49:59.925Z,30.57
2019-02-05T19:52:30.313Z,32.60
2019-02-05T19:54:58.969Z,30.77
2019-02-05T19:57:27.553Z,31.17
2019-02-05T20:00:03.862Z,40.53
2019-02-05T20:02:32.403Z,31.07
2019-02-05T20:05:01.069Z,32.53
2019-02-05T20:07:29.714Z,32.20
2019-02-05T20:09:58.371Z,38.20
2019-02-05T20:12:28.629Z,33.33
2019-02-05T20:14:57.190Z,31.90
2019-02-05T20:17:25.972Z,31.53
2019-02-05T20:19:55.121Z,33.93
2019-02-05T20:22:24.217Z,43.50
2019-02-05T20:24:52.857Z,31.57
2019-02-05T20:27:21.489Z,30.60
2019-02-05T20:32:21.477Z,28.00
2019-02-05T20:34:50.295Z,29.30
2019-02-05T20:37:18.879Z,36.67
2019-02-05T20:39:47.457Z,30.50
2019-02-05T20:42:16.555Z,30.70
2019-02-05T20:44:45.512Z,36.40
2019-02-05T20:47:14.115Z,32.63
2019-02-05T20:49:42.718Z,31.07
2019-02-05T20:52:11.346Z,39.40
2019-02-05T20:54:40.125Z,41.63
2019-02-05T20:57:08.715Z,28.97
2019-02-05T20:59:37.398Z,32.00
2019-02-05T21:02:05.977Z,33.77
2019-02-05T21:04:35.605Z,33.27
2019-02-05T21:07:05.222Z,37.40
2019-02-05T21:09:33.786Z,41.20
2019-02-05T21:12:02.355Z,31.73
2019-02-05T21:14:31.016Z,34.70
2019-02-05T21:16:59.620Z,35.80
2019-02-05T21:19:30.027Z,33.30
2019-02-05T21:21:58.723Z,34.00
2019-02-05T21:24:27.280Z,33.40
2019-02-05T21:26:55.856Z,35.07
2019-02-05T21:29:24.445Z,33.33
2019-02-05T21:31:53.007Z,35.23
2019-02-05T21:34:21.675Z,30.30
2019-02-05T21:36:51.967Z,35.90
2019-02-05T21:39:20.629Z,37.00
2019-02-05T21:41:49.354Z,40.80
2019-02-05T21:44:18.154Z,34.77
2019-02-05T21:46:46.725Z,37.10
2019-02-05T21:49:15.623Z,36.43
2019-02-05T21:51:44.220Z,41.90
2019-02-05T21:54:12.827Z,32.53
2019-02-05T21:56:41.564Z,37.63
2019-02-05T21:59:10.231Z,35.37
2019-02-05T22:01:38.787Z,32.00
2019-02-05T22:04:10.077Z,34.80
2019-02-05T22:06:37.874Z,34.50
2019-02-05T22:09:46.558Z,34.00
2019-02-05T22:18:20.552Z,36.87
2019-02-05T22:20:49.135Z,31.30
2019-02-05T22:23:18.130Z,35.27
2019-02-05T22:25:46.703Z,32.27
2019-02-05T22:28:15.347Z,32.50
2019-02-05T22:30:45.617Z,33.70
2019-02-05T22:33:14.160Z,31.70
2019-02-05T22:35:42.676Z,33.30
2019-02-05T22:38:11.236Z,35.03
2019-02-05T22:40:39.922Z,31.70
2019-02-05T22:43:10.194Z,31.60
2019-02-05T22:45:41.167Z,39.83
2019-02-05T22:48:09.910Z,30.70
2019-02-05T22:51:18.414Z,35.27
2019-02-05T22:53:46.914Z,39.80
2019-02-05T22:56:15.493Z,34.53
2019-02-05T22:58:45.727Z,34.80
2019-02-05T23:01:54.282Z,31.70
2019-02-05T23:05:02.729Z,31.83
2019-02-05T23:07:31.482Z,27.70
2019-02-05T23:10:39.921Z,31.87
2019-02-05T23:13:08.607Z,33.47
2019-02-05T23:16:17.102Z,32.00
2019-02-05T23:18:45.754Z,36.20
2019-02-05T23:21:14.314Z,32.40
2019-02-05T23:23:42.872Z,34.40
2019-02-05T23:26:11.394Z,35.60
2019-02-05T23:28:39.970Z,33.57
2019-02-05T23:31:08.428Z,35.00
2019-02-05T23:33:36.898Z,34.87
2019-02-05T23:36:05.444Z,37.40
2019-02-05T23:38:34.235Z,36.87
2019-02-05T23:41:03.237Z,32.97
2019-02-05T23:43:46.197Z,36.30
2019-02-05T23:46:02.361Z,29.23
2019-02-05T23:48:30.933Z,31.60
2019-02-05T23:50:59.948Z,33.07
2019-02-05T23:53:28.572Z,28.80
2019-02-05T23:55:57.129Z,32.93
2019-02-05T23:58:27.383Z,33.10
